Indianapolis, IN (46277)

12:18 PM EST on February 13, 2016 (GMT -0500)
North Fountain Square | | Change Station
CLOSE
Current Station
Personal Weather Station
Location: Indianapolis, IN
Elevation: 738 ft
Nearby Weather Stations

Elev 738 ft 39.76 °N, 86.14 °W | Updated 7 seconds ago

Partly Cloudy
Partly Cloudy
17.2 °F
Feels Like 17 °F
N
0.2
Wind Variable Wind from NW
Gusts 2.5 mph

Today
High -- | Low -- °F
--% Chance of Precip.
Yesterday
High -- | Low -- °F
Precip. -- in
Pressure 30.61 in
Visibility 10.0 miles
Clouds Few 3000 ft
Scattered Clouds 25000 ft
Windchill 17 °F
Dew Point -10 °F
Humidity 29%
Rainfall 0.00 in
Snow Depth Not available.
7:40 AM 6:18 PM
Waxing Crescent, 32% visible
METAR KIND 131654Z 30008KT 10SM FEW030 SCT250 M09/M20 A3056 RMK AO2 SLP364 T10941200
Pressure 30.61 in
Visibility 10.0 miles
Clouds Few 3000 ft
Scattered Clouds 25000 ft
Windchill 17 °F
Dew Point -10 °F
Humidity 29%
Rainfall 0.00 in
Snow Depth Not available.
7:40 AM 6:18 PM
Waxing Crescent, 32% visible
METAR KIND 131654Z 30008KT 10SM FEW030 SCT250 M09/M20 A3056 RMK AO2 SLP364 T10941200

10-Day Weather Forecast

Almanac

Astronomy

Feb. 13, 2016 Rise Set
Actual Time
Civil Twilight
Nautical Twilight
Astronomical Twilight
Moon
Length of Visible Light
Length of Day
Tomorrow will be .
, % of the Moon is Illuminated

Today's Extremes

State Highs State Lows

Community

WunderPhotos

Upload Photos

1,892,615 photos uploaded!

WunderBlog® & News

Nearby

Air Quality

  Air Quality AQ Index Pollutant
Not available.

Snow Depth

Station Depth Elevation

Earthquake Activity

City Distance Mag. Time & Date
Minimum magnitude displayed is 2.5.

Coastal Water Temperatures

Place Temperature

Stations

Nearby Weather Stations

Station Location Temp. Windchill Dew Point Humidity Wind Precip. Elev Updated Type
                   

Watches & Warnings

There are currently no watches in effect.